sensor_id;sensor_type;location;lat;lon;timestamp;P1;durP1;ratioP1;P2;durP2;ratioP2
16407;SDS011;8313;49.894;8.084;2023-07-13T00:00:53;6.03;;;1.90;;
16407;SDS011;8313;49.894;8.084;2023-07-13T00:03:21;1.93;;;1.83;;
16407;SDS011;8313;49.894;8.084;2023-07-13T00:05:46;1.90;;;1.77;;
16407;SDS011;8313;49.894;8.084;2023-07-13T00:08:21;2.30;;;2.10;;
16407;SDS011;8313;49.894;8.084;2023-07-13T00:10:48;2.33;;;2.13;;
16407;SDS011;8313;49.894;8.084;2023-07-13T00:13:19;3.07;;;2.20;;
16407;SDS011;8313;49.894;8.084;2023-07-13T00:15:45;2.20;;;2.10;;
16407;SDS011;8313;49.894;8.084;2023-07-13T00:18:11;2.20;;;2.00;;
16407;SDS011;8313;49.894;8.084;2023-07-13T00:20:37;2.90;;;2.00;;
16407;SDS011;8313;49.894;8.084;2023-07-13T00:23:03;2.20;;;2.00;;
16407;SDS011;8313;49.894;8.084;2023-07-13T00:25:29;2.07;;;1.70;;
16407;SDS011;8313;49.894;8.084;2023-07-13T00:27:54;2.93;;;2.40;;
16407;SDS011;8313;49.894;8.084;2023-07-13T00:30:20;2.33;;;2.10;;
16407;SDS011;8313;49.894;8.084;2023-07-13T00:32:46;4.67;;;2.00;;
16407;SDS011;8313;49.894;8.084;2023-07-13T00:35:13;2.60;;;2.40;;
16407;SDS011;8313;49.894;8.084;2023-07-13T00:37:39;2.60;;;2.40;;
16407;SDS011;8313;49.894;8.084;2023-07-13T00:40:05;2.90;;;2.70;;
16407;SDS011;8313;49.894;8.084;2023-07-13T00:42:32;2.27;;;2.00;;
16407;SDS011;8313;49.894;8.084;2023-07-13T00:47:53;3.47;;;2.40;;
16407;SDS011;8313;49.894;8.084;2023-07-13T00:50:21;2.27;;;1.83;;
16407;SDS011;8313;49.894;8.084;2023-07-13T00:52:49;2.00;;;1.83;;
16407;SDS011;8313;49.894;8.084;2023-07-13T00:55:18;2.90;;;2.13;;
16407;SDS011;8313;49.894;8.084;2023-07-13T00:57:47;3.50;;;1.80;;
16407;SDS011;8313;49.894;8.084;2023-07-13T01:00:13;3.23;;;2.70;;
16407;SDS011;8313;49.894;8.084;2023-07-13T01:02:41;2.00;;;1.90;;
16407;SDS011;8313;49.894;8.084;2023-07-13T01:05:16;1.97;;;1.87;;
16407;SDS011;8313;49.894;8.084;2023-07-13T01:07:45;2.10;;;2.00;;
16407;SDS011;8313;49.894;8.084;2023-07-13T01:10:13;2.83;;;2.20;;
16407;SDS011;8313;49.894;8.084;2023-07-13T01:12:39;1.53;;;1.43;;
16407;SDS011;8313;49.894;8.084;2023-07-13T01:15:06;3.20;;;2.33;;
16407;SDS011;8313;49.894;8.084;2023-07-13T01:17:51;2.70;;;2.50;;
16407;SDS011;8313;49.894;8.084;2023-07-13T01:20:17;2.30;;;2.10;;
16407;SDS011;8313;49.894;8.084;2023-07-13T01:22:43;4.20;;;2.20;;
16407;SDS011;8313;49.894;8.084;2023-07-13T01:25:09;2.00;;;1.80;;
16407;SDS011;8313;49.894;8.084;2023-07-13T01:27:34;2.70;;;2.17;;
16407;SDS011;8313;49.894;8.084;2023-07-13T01:30:01;2.23;;;1.80;;
16407;SDS011;8313;49.894;8.084;2023-07-13T01:32:27;3.67;;;1.90;;
16407;SDS011;8313;49.894;8.084;2023-07-13T01:34:54;1.77;;;1.67;;
16407;SDS011;8313;49.894;8.084;2023-07-13T01:37:20;2.27;;;2.07;;
16407;SDS011;8313;49.894;8.084;2023-07-13T01:39:46;2.63;;;1.80;;
16407;SDS011;8313;49.894;8.084;2023-07-13T01:42:12;2.00;;;1.90;;
16407;SDS011;8313;49.894;8.084;2023-07-13T01:44:39;1.90;;;1.80;;
16407;SDS011;8313;49.894;8.084;2023-07-13T01:47:06;2.40;;;1.77;;
16407;SDS011;8313;49.894;8.084;2023-07-13T01:49:32;3.13;;;1.90;;
16407;SDS011;8313;49.894;8.084;2023-07-13T01:51:58;4.00;;;2.23;;
16407;SDS011;8313;49.894;8.084;2023-07-13T01:54:23;1.70;;;1.60;;
16407;SDS011;8313;49.894;8.084;2023-07-13T01:56:49;2.77;;;1.80;;
16407;SDS011;8313;49.894;8.084;2023-07-13T01:59:15;1.70;;;1.60;;
16407;SDS011;8313;49.894;8.084;2023-07-13T02:01:41;2.70;;;2.00;;
16407;SDS011;8313;49.894;8.084;2023-07-13T02:04:06;2.00;;;1.70;;
16407;SDS011;8313;49.894;8.084;2023-07-13T02:06:32;1.80;;;1.70;;
16407;SDS011;8313;49.894;8.084;2023-07-13T02:08:58;1.53;;;1.43;;
16407;SDS011;8313;49.894;8.084;2023-07-13T02:11:25;3.40;;;3.20;;
16407;SDS011;8313;49.894;8.084;2023-07-13T02:13:57;2.80;;;2.03;;
16407;SDS011;8313;49.894;8.084;2023-07-13T02:16:27;2.67;;;2.47;;
16407;SDS011;8313;49.894;8.084;2023-07-13T02:18:53;2.30;;;1.60;;
16407;SDS011;8313;49.894;8.084;2023-07-13T02:21:20;2.40;;;2.20;;
16407;SDS011;8313;49.894;8.084;2023-07-13T02:23:47;2.17;;;2.00;;
16407;SDS011;8313;49.894;8.084;2023-07-13T02:26:15;2.33;;;2.13;;
16407;SDS011;8313;49.894;8.084;2023-07-13T02:28:41;2.77;;;2.50;;
16407;SDS011;8313;49.894;8.084;2023-07-13T02:31:07;3.73;;;2.10;;
16407;SDS011;8313;49.894;8.084;2023-07-13T02:33:34;4.00;;;1.90;;
16407;SDS011;8313;49.894;8.084;2023-07-13T02:36:01;2.20;;;1.90;;
16407;SDS011;8313;49.894;8.084;2023-07-13T02:38:27;4.13;;;2.50;;
16407;SDS011;8313;49.894;8.084;2023-07-13T02:40:52;2.27;;;2.17;;
16407;SDS011;8313;49.894;8.084;2023-07-13T02:43:18;2.30;;;2.10;;
16407;SDS011;8313;49.894;8.084;2023-07-13T02:45:46;1.73;;;1.63;;
16407;SDS011;8313;49.894;8.084;2023-07-13T02:48:13;2.37;;;2.17;;
16407;SDS011;8313;49.894;8.084;2023-07-13T02:50:39;5.77;;;1.67;;
16407;SDS011;8313;49.894;8.084;2023-07-13T02:53:05;5.30;;;2.03;;
16407;SDS011;8313;49.894;8.084;2023-07-13T02:55:30;2.73;;;2.10;;
16407;SDS011;8313;49.894;8.084;2023-07-13T02:57:56;4.20;;;2.17;;
16407;SDS011;8313;49.894;8.084;2023-07-13T03:00:22;2.10;;;1.90;;
16407;SDS011;8313;49.894;8.084;2023-07-13T03:02:48;2.07;;;1.90;;
16407;SDS011;8313;49.894;8.084;2023-07-13T03:05:15;4.60;;;2.27;;
16407;SDS011;8313;49.894;8.084;2023-07-13T03:07:42;2.10;;;1.90;;
16407;SDS011;8313;49.894;8.084;2023-07-13T03:10:09;3.33;;;3.03;;
16407;SDS011;8313;49.894;8.084;2023-07-13T03:12:42;2.70;;;2.23;;
16407;SDS011;8313;49.894;8.084;2023-07-13T03:15:15;2.30;;;2.10;;
16407;SDS011;8313;49.894;8.084;2023-07-13T03:17:43;3.20;;;2.10;;
16407;SDS011;8313;49.894;8.084;2023-07-13T03:20:09;2.30;;;1.93;;
16407;SDS011;8313;49.894;8.084;2023-07-13T03:22:35;2.60;;;2.40;;
16407;SDS011;8313;49.894;8.084;2023-07-13T03:25:01;2.23;;;1.73;;
16407;SDS011;8313;49.894;8.084;2023-07-13T03:27:27;2.10;;;2.00;;
16407;SDS011;8313;49.894;8.084;2023-07-13T03:29:53;2.33;;;2.03;;
16407;SDS011;8313;49.894;8.084;2023-07-13T03:32:19;2.37;;;2.17;;
16407;SDS011;8313;49.894;8.084;2023-07-13T03:34:45;4.27;;;2.20;;
16407;SDS011;8313;49.894;8.084;2023-07-13T03:37:12;2.53;;;2.20;;
16407;SDS011;8313;49.894;8.084;2023-07-13T03:39:37;4.17;;;2.20;;
16407;SDS011;8313;49.894;8.084;2023-07-13T03:42:03;3.03;;;2.13;;
16407;SDS011;8313;49.894;8.084;2023-07-13T03:44:29;2.87;;;2.30;;
16407;SDS011;8313;49.894;8.084;2023-07-13T03:46:56;3.77;;;2.53;;
16407;SDS011;8313;49.894;8.084;2023-07-13T03:49:22;2.40;;;2.10;;
16407;SDS011;8313;49.894;8.084;2023-07-13T03:51:48;3.67;;;2.50;;
16407;SDS011;8313;49.894;8.084;2023-07-13T03:54:14;2.53;;;2.33;;
16407;SDS011;8313;49.894;8.084;2023-07-13T03:56:39;3.73;;;2.57;;
16407;SDS011;8313;49.894;8.084;2023-07-13T03:59:07;2.57;;;2.37;;
16407;SDS011;8313;49.894;8.084;2023-07-13T04:01:33;2.40;;;1.87;;
16407;SDS011;8313;49.894;8.084;2023-07-13T04:03:59;2.93;;;2.67;;
16407;SDS011;8313;49.894;8.084;2023-07-13T04:06:26;2.07;;;1.70;;
16407;SDS011;8313;49.894;8.084;2023-07-13T04:08:55;2.80;;;2.60;;
16407;SDS011;8313;49.894;8.084;2023-07-13T04:11:27;2.80;;;2.10;;
16407;SDS011;8313;49.894;8.084;2023-07-13T04:13:54;2.97;;;2.20;;
16407;SDS011;8313;49.894;8.084;2023-07-13T04:16:20;2.40;;;2.20;;
16407;SDS011;8313;49.894;8.084;2023-07-13T04:18:47;4.80;;;2.10;;
16407;SDS011;8313;49.894;8.084;2023-07-13T04:21:13;6.10;;;2.30;;
16407;SDS011;8313;49.894;8.084;2023-07-13T04:23:39;3.53;;;2.57;;
16407;SDS011;8313;49.894;8.084;2023-07-13T04:26:05;2.50;;;2.13;;
16407;SDS011;8313;49.894;8.084;2023-07-13T04:28:32;2.40;;;2.20;;
16407;SDS011;8313;49.894;8.084;2023-07-13T04:30:58;6.00;;;2.20;;
16407;SDS011;8313;49.894;8.084;2023-07-13T04:33:23;2.13;;;2.03;;
16407;SDS011;8313;49.894;8.084;2023-07-13T04:35:50;5.43;;;2.80;;
16407;SDS011;8313;49.894;8.084;2023-07-13T04:38:19;2.33;;;2.00;;
16407;SDS011;8313;49.894;8.084;2023-07-13T04:40:45;2.50;;;2.30;;
16407;SDS011;8313;49.894;8.084;2023-07-13T04:43:12;2.50;;;2.30;;
16407;SDS011;8313;49.894;8.084;2023-07-13T04:45:38;2.90;;;1.83;;
16407;SDS011;8313;49.894;8.084;2023-07-13T04:48:04;1.80;;;1.57;;
16407;SDS011;8313;49.894;8.084;2023-07-13T04:50:30;3.10;;;1.80;;
16407;SDS011;8313;49.894;8.084;2023-07-13T04:52:55;3.80;;;2.27;;
16407;SDS011;8313;49.894;8.084;2023-07-13T04:55:21;1.97;;;1.83;;
16407;SDS011;8313;49.894;8.084;2023-07-13T04:57:47;2.63;;;1.87;;
16407;SDS011;8313;49.894;8.084;2023-07-13T05:00:13;1.80;;;1.70;;
16407;SDS011;8313;49.894;8.084;2023-07-13T05:02:40;3.00;;;2.33;;
16407;SDS011;8313;49.894;8.084;2023-07-13T05:05:09;5.30;;;1.90;;
16407;SDS011;8313;49.894;8.084;2023-07-13T05:07:35;3.57;;;1.60;;
16407;SDS011;8313;49.894;8.084;2023-07-13T05:10:01;2.20;;;2.00;;
16407;SDS011;8313;49.894;8.084;2023-07-13T05:12:29;2.13;;;1.90;;
16407;SDS011;8313;49.894;8.084;2023-07-13T05:14:55;2.03;;;1.83;;
16407;SDS011;8313;49.894;8.084;2023-07-13T05:17:21;2.47;;;2.10;;
16407;SDS011;8313;49.894;8.084;2023-07-13T05:19:48;2.00;;;1.80;;
16407;SDS011;8313;49.894;8.084;2023-07-13T05:22:14;1.83;;;1.57;;
16407;SDS011;8313;49.894;8.084;2023-07-13T05:24:39;3.13;;;2.07;;
16407;SDS011;8313;49.894;8.084;2023-07-13T05:27:05;2.03;;;1.93;;
16407;SDS011;8313;49.894;8.084;2023-07-13T05:29:31;2.50;;;2.07;;
16407;SDS011;8313;49.894;8.084;2023-07-13T05:31:56;3.23;;;1.90;;
16407;SDS011;8313;49.894;8.084;2023-07-13T05:34:22;3.73;;;2.13;;
16407;SDS011;8313;49.894;8.084;2023-07-13T05:36:48;1.87;;;1.77;;
16407;SDS011;8313;49.894;8.084;2023-07-13T05:39:14;2.30;;;2.10;;
16407;SDS011;8313;49.894;8.084;2023-07-13T05:41:40;2.00;;;1.90;;
16407;SDS011;8313;49.894;8.084;2023-07-13T05:44:06;4.30;;;2.10;;
16407;SDS011;8313;49.894;8.084;2023-07-13T05:46:32;2.90;;;2.20;;
16407;SDS011;8313;49.894;8.084;2023-07-13T05:48:58;2.40;;;2.20;;
16407;SDS011;8313;49.894;8.084;2023-07-13T05:51:24;2.20;;;1.83;;
16407;SDS011;8313;49.894;8.084;2023-07-13T05:53:50;2.67;;;2.37;;
16407;SDS011;8313;49.894;8.084;2023-07-13T05:56:15;2.20;;;2.00;;
16407;SDS011;8313;49.894;8.084;2023-07-13T05:58:41;1.93;;;1.80;;
16407;SDS011;8313;49.894;8.084;2023-07-13T06:01:09;2.60;;;1.83;;
16407;SDS011;8313;49.894;8.084;2023-07-13T06:03:37;3.10;;;2.80;;
16407;SDS011;8313;49.894;8.084;2023-07-13T06:06:05;3.93;;;1.50;;
16407;SDS011;8313;49.894;8.084;2023-07-13T06:08:32;1.70;;;1.60;;
16407;SDS011;8313;49.894;8.084;2023-07-13T06:11:02;2.07;;;1.87;;
16407;SDS011;8313;49.894;8.084;2023-07-13T06:13:29;1.87;;;1.77;;
16407;SDS011;8313;49.894;8.084;2023-07-13T06:15:55;1.63;;;1.53;;
16407;SDS011;8313;49.894;8.084;2023-07-13T06:18:20;1.80;;;1.70;;
16407;SDS011;8313;49.894;8.084;2023-07-13T06:20:46;3.20;;;1.77;;
16407;SDS011;8313;49.894;8.084;2023-07-13T06:23:12;2.13;;;2.03;;
16407;SDS011;8313;49.894;8.084;2023-07-13T06:25:37;2.23;;;2.03;;
16407;SDS011;8313;49.894;8.084;2023-07-13T06:28:04;3.33;;;1.90;;
16407;SDS011;8313;49.894;8.084;2023-07-13T06:30:30;4.10;;;2.27;;
16407;SDS011;8313;49.894;8.084;2023-07-13T06:32:57;1.67;;;1.57;;
16407;SDS011;8313;49.894;8.084;2023-07-13T06:35:22;3.30;;;2.03;;
16407;SDS011;8313;49.894;8.084;2023-07-13T06:37:48;3.83;;;3.50;;
16407;SDS011;8313;49.894;8.084;2023-07-13T06:40:14;3.77;;;2.10;;
16407;SDS011;8313;49.894;8.084;2023-07-13T06:42:39;3.60;;;1.90;;
16407;SDS011;8313;49.894;8.084;2023-07-13T06:45:05;2.30;;;1.63;;
16407;SDS011;8313;49.894;8.084;2023-07-13T06:47:31;1.70;;;1.60;;
16407;SDS011;8313;49.894;8.084;2023-07-13T06:49:57;2.20;;;1.70;;
16407;SDS011;8313;49.894;8.084;2023-07-13T06:52:23;1.70;;;1.60;;
16407;SDS011;8313;49.894;8.084;2023-07-13T06:54:48;3.97;;;2.13;;
16407;SDS011;8313;49.894;8.084;2023-07-13T06:57:14;2.20;;;2.00;;
16407;SDS011;8313;49.894;8.084;2023-07-13T06:59:39;2.40;;;1.40;;
16407;SDS011;8313;49.894;8.084;2023-07-13T07:02:05;2.27;;;1.30;;
16407;SDS011;8313;49.894;8.084;2023-07-13T07:04:33;2.23;;;1.20;;
16407;SDS011;8313;49.894;8.084;2023-07-13T07:06:59;2.83;;;1.43;;
16407;SDS011;8313;49.894;8.084;2023-07-13T07:09:25;2.20;;;1.57;;
16407;SDS011;8313;49.894;8.084;2023-07-13T07:11:50;2.27;;;1.33;;
16407;SDS011;8313;49.894;8.084;2023-07-13T07:14:16;3.80;;;1.60;;
16407;SDS011;8313;49.894;8.084;2023-07-13T07:16:42;1.57;;;1.47;;
16407;SDS011;8313;49.894;8.084;2023-07-13T07:19:08;1.93;;;1.40;;
16407;SDS011;8313;49.894;8.084;2023-07-13T07:21:34;1.60;;;1.50;;
16407;SDS011;8313;49.894;8.084;2023-07-13T07:23:59;1.60;;;1.50;;
16407;SDS011;8313;49.894;8.084;2023-07-13T07:26:25;1.63;;;1.47;;
16407;SDS011;8313;49.894;8.084;2023-07-13T07:28:51;1.63;;;1.30;;
16407;SDS011;8313;49.894;8.084;2023-07-13T07:31:17;1.37;;;1.27;;
16407;SDS011;8313;49.894;8.084;2023-07-13T07:33:42;2.50;;;1.03;;
16407;SDS011;8313;49.894;8.084;2023-07-13T07:36:08;1.97;;;1.07;;
16407;SDS011;8313;49.894;8.084;2023-07-13T07:38:34;1.13;;;1.07;;
16407;SDS011;8313;49.894;8.084;2023-07-13T07:41:02;1.50;;;1.27;;
16407;SDS011;8313;49.894;8.084;2023-07-13T07:43:31;1.20;;;1.10;;
16407;SDS011;8313;49.894;8.084;2023-07-13T07:45:57;1.27;;;1.17;;
16407;SDS011;8313;49.894;8.084;2023-07-13T07:48:23;2.00;;;1.33;;
16407;SDS011;8313;49.894;8.084;2023-07-13T07:50:49;2.00;;;1.10;;
16407;SDS011;8313;49.894;8.084;2023-07-13T07:53:14;6.03;;;1.33;;
16407;SDS011;8313;49.894;8.084;2023-07-13T07:55:40;4.27;;;1.30;;
16407;SDS011;8313;49.894;8.084;2023-07-13T07:58:06;2.80;;;1.30;;
16407;SDS011;8313;49.894;8.084;2023-07-13T08:00:32;1.73;;;1.30;;
16407;SDS011;8313;49.894;8.084;2023-07-13T08:02:58;1.63;;;1.27;;
16407;SDS011;8313;49.894;8.084;2023-07-13T08:05:25;2.13;;;1.47;;
16407;SDS011;8313;49.894;8.084;2023-07-13T08:07:51;1.27;;;1.17;;
16407;SDS011;8313;49.894;8.084;2023-07-13T08:10:17;1.20;;;1.10;;
16407;SDS011;8313;49.894;8.084;2023-07-13T08:12:42;3.23;;;1.40;;
16407;SDS011;8313;49.894;8.084;2023-07-13T08:15:13;2.80;;;1.30;;
16407;SDS011;8313;49.894;8.084;2023-07-13T08:17:40;3.60;;;1.20;;
16407;SDS011;8313;49.894;8.084;2023-07-13T08:20:06;1.43;;;1.03;;
16407;SDS011;8313;49.894;8.084;2023-07-13T08:22:33;2.03;;;1.50;;
16407;SDS011;8313;49.894;8.084;2023-07-13T08:25:00;2.00;;;1.40;;
16407;SDS011;8313;49.894;8.084;2023-07-13T08:27:27;1.13;;;1.03;;
16407;SDS011;8313;49.894;8.084;2023-07-13T08:29:53;4.20;;;1.20;;
16407;SDS011;8313;49.894;8.084;2023-07-13T08:32:20;7.60;;;1.50;;
16407;SDS011;8313;49.894;8.084;2023-07-13T08:34:48;3.10;;;1.47;;
16407;SDS011;8313;49.894;8.084;2023-07-13T08:37:14;1.30;;;1.20;;
16407;SDS011;8313;49.894;8.084;2023-07-13T08:39:40;1.60;;;1.50;;
16407;SDS011;8313;49.894;8.084;2023-07-13T08:44:57;1.63;;;1.23;;
16407;SDS011;8313;49.894;8.084;2023-07-13T08:47:31;4.17;;;1.87;;
16407;SDS011;8313;49.894;8.084;2023-07-13T08:50:01;3.63;;;1.30;;
16407;SDS011;8313;49.894;8.084;2023-07-13T08:52:37;1.00;;;1.00;;
16407;SDS011;8313;49.894;8.084;2023-07-13T08:55:57;1.60;;;1.50;;
16407;SDS011;8313;49.894;8.084;2023-07-13T08:58:00;1.67;;;1.27;;
16407;SDS011;8313;49.894;8.084;2023-07-13T09:00:43;1.77;;;1.60;;
16407;SDS011;8313;49.894;8.084;2023-07-13T09:03:20;3.37;;;1.47;;
16407;SDS011;8313;49.894;8.084;2023-07-13T09:05:54;2.73;;;1.57;;
16407;SDS011;8313;49.894;8.084;2023-07-13T09:10:49;1.13;;;1.03;;
16407;SDS011;8313;49.894;8.084;2023-07-13T09:13:37;1.30;;;1.20;;
16407;SDS011;8313;49.894;8.084;2023-07-13T09:16:12;1.27;;;1.17;;
16407;SDS011;8313;49.894;8.084;2023-07-13T09:18:39;1.00;;;1.00;;
16407;SDS011;8313;49.894;8.084;2023-07-13T09:23:37;1.53;;;1.03;;
16407;SDS011;8313;49.894;8.084;2023-07-13T09:28:39;1.00;;;0.93;;
16407;SDS011;8313;49.894;8.084;2023-07-13T09:31:10;2.70;;;1.17;;
16407;SDS011;8313;49.894;8.084;2023-07-13T09:33:41;1.97;;;1.27;;
16407;SDS011;8313;49.894;8.084;2023-07-13T09:47:16;2.00;;;1.20;;
16407;SDS011;8313;49.894;8.084;2023-07-13T09:49:43;1.70;;;1.60;;
16407;SDS011;8313;49.894;8.084;2023-07-13T09:52:14;2.33;;;1.17;;
16407;SDS011;8313;49.894;8.084;2023-07-13T09:54:43;1.23;;;1.13;;
16407;SDS011;8313;49.894;8.084;2023-07-13T09:57:14;1.20;;;1.10;;
16407;SDS011;8313;49.894;8.084;2023-07-13T09:59:47;1.73;;;1.30;;
16407;SDS011;8313;49.894;8.084;2023-07-13T10:02:33;1.73;;;1.30;;
16407;SDS011;8313;49.894;8.084;2023-07-13T10:05:05;4.90;;;1.77;;
16407;SDS011;8313;49.894;8.084;2023-07-13T10:07:39;1.10;;;1.00;;
16407;SDS011;8313;49.894;8.084;2023-07-13T10:10:13;1.37;;;1.20;;
16407;SDS011;8313;49.894;8.084;2023-07-13T10:12:41;1.20;;;1.03;;
16407;SDS011;8313;49.894;8.084;2023-07-13T10:15:07;1.63;;;1.53;;
16407;SDS011;8313;49.894;8.084;2023-07-13T10:17:40;5.40;;;1.50;;
16407;SDS011;8313;49.894;8.084;2023-07-13T10:20:07;1.30;;;1.20;;
16407;SDS011;8313;49.894;8.084;2023-07-13T10:23:13;3.40;;;1.50;;
16407;SDS011;8313;49.894;8.084;2023-07-13T10:25:38;1.70;;;1.40;;
16407;SDS011;8313;49.894;8.084;2023-07-13T10:28:13;2.27;;;1.30;;
16407;SDS011;8313;49.894;8.084;2023-07-13T10:30:58;1.33;;;1.23;;
16407;SDS011;8313;49.894;8.084;2023-07-13T10:33:26;1.30;;;1.17;;
16407;SDS011;8313;49.894;8.084;2023-07-13T10:35:54;1.80;;;1.23;;
16407;SDS011;8313;49.894;8.084;2023-07-13T10:38:26;1.80;;;1.13;;
16407;SDS011;8313;49.894;8.084;2023-07-13T10:41:04;1.60;;;1.50;;
16407;SDS011;8313;49.894;8.084;2023-07-13T10:43:42;1.57;;;1.33;;
16407;SDS011;8313;49.894;8.084;2023-07-13T10:46:11;3.13;;;1.63;;
16407;SDS011;8313;49.894;8.084;2023-07-13T10:48:40;1.40;;;1.30;;
16407;SDS011;8313;49.894;8.084;2023-07-13T10:51:09;1.43;;;1.23;;
16407;SDS011;8313;49.894;8.084;2023-07-13T10:53:37;1.83;;;1.60;;
16407;SDS011;8313;49.894;8.084;2023-07-13T10:58:41;1.30;;;1.20;;
16407;SDS011;8313;49.894;8.084;2023-07-13T11:01:12;1.47;;;1.37;;
16407;SDS011;8313;49.894;8.084;2023-07-13T11:06:29;2.50;;;1.37;;
16407;SDS011;8313;49.894;8.084;2023-07-13T11:12:27;1.33;;;1.23;;
16407;SDS011;8313;49.894;8.084;2023-07-13T11:22:48;1.73;;;1.20;;
16407;SDS011;8313;49.894;8.084;2023-07-13T11:27:52;1.43;;;1.20;;
16407;SDS011;8313;49.894;8.084;2023-07-13T11:30:39;1.47;;;1.37;;
16407;SDS011;8313;49.894;8.084;2023-07-13T11:35:39;1.63;;;1.40;;
16407;SDS011;8313;49.894;8.084;2023-07-13T11:38:17;1.65;;;1.15;;
16407;SDS011;8313;49.894;8.084;2023-07-13T11:40:47;1.40;;;1.10;;
16407;SDS011;8313;49.894;8.084;2023-07-13T11:43:15;1.30;;;1.20;;
16407;SDS011;8313;49.894;8.084;2023-07-13T11:45:42;2.77;;;1.43;;
16407;SDS011;8313;49.894;8.084;2023-07-13T11:48:18;2.13;;;1.27;;
16407;SDS011;8313;49.894;8.084;2023-07-13T11:50:48;1.50;;;1.37;;
16407;SDS011;8313;49.894;8.084;2023-07-13T11:53:21;2.07;;;1.97;;
16407;SDS011;8313;49.894;8.084;2023-07-13T11:55:48;1.27;;;1.17;;
16407;SDS011;8313;49.894;8.084;2023-07-13T11:58:16;3.00;;;1.53;;
16407;SDS011;8313;49.894;8.084;2023-07-13T12:00:46;3.40;;;1.50;;
16407;SDS011;8313;49.894;8.084;2023-07-13T12:03:13;1.60;;;1.37;;
16407;SDS011;8313;49.894;8.084;2023-07-13T12:05:59;2.93;;;1.57;;
16407;SDS011;8313;49.894;8.084;2023-07-13T12:08:27;1.37;;;1.37;;
16407;SDS011;8313;49.894;8.084;2023-07-13T12:10:58;1.40;;;1.23;;
16407;SDS011;8313;49.894;8.084;2023-07-13T12:13:26;2.80;;;1.93;;
16407;SDS011;8313;49.894;8.084;2023-07-13T12:15:54;1.80;;;1.43;;
16407;SDS011;8313;49.894;8.084;2023-07-13T12:18:22;1.33;;;1.23;;
16407;SDS011;8313;49.894;8.084;2023-07-13T12:20:55;1.30;;;1.20;;
16407;SDS011;8313;49.894;8.084;2023-07-13T12:23:32;1.10;;;1.00;;
16407;SDS011;8313;49.894;8.084;2023-07-13T12:26:01;2.23;;;1.40;;
16407;SDS011;8313;49.894;8.084;2023-07-13T12:28:36;1.50;;;1.40;;
16407;SDS011;8313;49.894;8.084;2023-07-13T12:31:08;2.30;;;1.40;;
16407;SDS011;8313;49.894;8.084;2023-07-13T12:33:56;1.50;;;1.20;;
16407;SDS011;8313;49.894;8.084;2023-07-13T12:36:23;2.07;;;1.40;;
16407;SDS011;8313;49.894;8.084;2023-07-13T12:38:49;4.37;;;1.70;;
16407;SDS011;8313;49.894;8.084;2023-07-13T12:41:16;3.20;;;1.80;;
16407;SDS011;8313;49.894;8.084;2023-07-13T12:43:42;2.50;;;1.63;;
16407;SDS011;8313;49.894;8.084;2023-07-13T12:46:20;2.43;;;1.63;;
16407;SDS011;8313;49.894;8.084;2023-07-13T12:48:50;1.37;;;1.23;;
16407;SDS011;8313;49.894;8.084;2023-07-13T12:51:20;2.63;;;1.70;;
16407;SDS011;8313;49.894;8.084;2023-07-13T12:53:48;2.13;;;1.53;;
16407;SDS011;8313;49.894;8.084;2023-07-13T12:56:21;3.00;;;1.53;;
16407;SDS011;8313;49.894;8.084;2023-07-13T12:58:49;4.63;;;1.50;;
16407;SDS011;8313;49.894;8.084;2023-07-13T13:01:20;2.23;;;1.40;;
16407;SDS011;8313;49.894;8.084;2023-07-13T13:03:49;1.73;;;1.40;;
16407;SDS011;8313;49.894;8.084;2023-07-13T13:06:27;1.90;;;1.70;;
16407;SDS011;8313;49.894;8.084;2023-07-13T13:08:58;3.07;;;1.23;;
16407;SDS011;8313;49.894;8.084;2023-07-13T13:11:25;3.07;;;1.50;;
16407;SDS011;8313;49.894;8.084;2023-07-13T13:13:52;2.70;;;1.80;;
16407;SDS011;8313;49.894;8.084;2023-07-13T13:18:44;1.30;;;1.20;;
16407;SDS011;8313;49.894;8.084;2023-07-13T13:21:10;2.07;;;1.40;;
16407;SDS011;8313;49.894;8.084;2023-07-13T13:23:36;2.60;;;1.70;;
16407;SDS011;8313;49.894;8.084;2023-07-13T13:26:02;0.97;;;0.93;;
16407;SDS011;8313;49.894;8.084;2023-07-13T13:28:28;2.83;;;1.50;;
16407;SDS011;8313;49.894;8.084;2023-07-13T13:30:54;0.87;;;0.87;;
16407;SDS011;8313;49.894;8.084;2023-07-13T13:33:20;3.23;;;1.20;;
16407;SDS011;8313;49.894;8.084;2023-07-13T13:35:47;1.67;;;1.30;;
16407;SDS011;8313;49.894;8.084;2023-07-13T13:41:05;3.57;;;1.67;;
16407;SDS011;8313;49.894;8.084;2023-07-13T13:43:31;3.00;;;1.93;;
16407;SDS011;8313;49.894;8.084;2023-07-13T13:45:58;1.67;;;1.20;;
16407;SDS011;8313;49.894;8.084;2023-07-13T13:48:33;1.30;;;1.20;;
16407;SDS011;8313;49.894;8.084;2023-07-13T13:51:01;1.60;;;1.50;;
16407;SDS011;8313;49.894;8.084;2023-07-13T13:53:38;1.43;;;1.20;;
16407;SDS011;8313;49.894;8.084;2023-07-13T13:56:04;1.63;;;1.43;;
16407;SDS011;8313;49.894;8.084;2023-07-13T13:58:30;3.10;;;1.30;;
16407;SDS011;8313;49.894;8.084;2023-07-13T14:00:56;1.10;;;1.07;;
16407;SDS011;8313;49.894;8.084;2023-07-13T14:03:23;2.20;;;1.27;;
16407;SDS011;8313;49.894;8.084;2023-07-13T14:05:49;1.10;;;1.10;;
16407;SDS011;8313;49.894;8.084;2023-07-13T14:08:15;1.80;;;1.50;;
16407;SDS011;8313;49.894;8.084;2023-07-13T14:10:47;2.20;;;1.30;;
16407;SDS011;8313;49.894;8.084;2023-07-13T14:13:21;1.13;;;1.13;;
16407;SDS011;8313;49.894;8.084;2023-07-13T14:15:52;1.00;;;0.90;;
16407;SDS011;8313;49.894;8.084;2023-07-13T14:18:19;1.60;;;1.50;;
16407;SDS011;8313;49.894;8.084;2023-07-13T14:20:45;2.50;;;1.13;;
16407;SDS011;8313;49.894;8.084;2023-07-13T14:23:15;1.53;;;1.30;;
16407;SDS011;8313;49.894;8.084;2023-07-13T14:25:42;1.30;;;1.20;;
16407;SDS011;8313;49.894;8.084;2023-07-13T14:28:26;3.73;;;1.20;;
16407;SDS011;8313;49.894;8.084;2023-07-13T14:30:53;1.90;;;1.57;;
16407;SDS011;8313;49.894;8.084;2023-07-13T14:33:22;1.57;;;1.20;;
16407;SDS011;8313;49.894;8.084;2023-07-13T14:35:49;1.23;;;1.00;;
16407;SDS011;8313;49.894;8.084;2023-07-13T14:38:17;1.83;;;1.33;;
16407;SDS011;8313;49.894;8.084;2023-07-13T14:40:44;2.10;;;1.57;;
16407;SDS011;8313;49.894;8.084;2023-07-13T14:43:11;2.40;;;1.50;;
16407;SDS011;8313;49.894;8.084;2023-07-13T14:45:42;1.60;;;1.50;;
16407;SDS011;8313;49.894;8.084;2023-07-13T14:48:20;4.23;;;1.50;;
16407;SDS011;8313;49.894;8.084;2023-07-13T14:50:50;1.50;;;1.40;;
16407;SDS011;8313;49.894;8.084;2023-07-13T14:53:19;3.20;;;1.90;;
16407;SDS011;8313;49.894;8.084;2023-07-13T14:55:45;2.60;;;1.60;;
16407;SDS011;8313;49.894;8.084;2023-07-13T14:58:11;2.57;;;1.50;;
16407;SDS011;8313;49.894;8.084;2023-07-13T15:00:38;1.30;;;1.20;;
16407;SDS011;8313;49.894;8.084;2023-07-13T15:03:05;2.30;;;1.20;;
16407;SDS011;8313;49.894;8.084;2023-07-13T15:05:46;2.40;;;1.43;;
16407;SDS011;8313;49.894;8.084;2023-07-13T15:08:12;2.23;;;1.20;;
16407;SDS011;8313;49.894;8.084;2023-07-13T15:10:38;1.67;;;1.20;;
16407;SDS011;8313;49.894;8.084;2023-07-13T15:13:17;1.53;;;1.43;;
16407;SDS011;8313;49.894;8.084;2023-07-13T15:15:47;1.40;;;1.20;;
16407;SDS011;8313;49.894;8.084;2023-07-13T15:18:15;1.60;;;1.47;;
16407;SDS011;8313;49.894;8.084;2023-07-13T15:20:44;1.67;;;1.40;;
16407;SDS011;8313;49.894;8.084;2023-07-13T15:23:11;1.37;;;1.27;;
16407;SDS011;8313;49.894;8.084;2023-07-13T15:25:38;3.77;;;1.40;;
16407;SDS011;8313;49.894;8.084;2023-07-13T15:28:04;1.60;;;1.50;;
16407;SDS011;8313;49.894;8.084;2023-07-13T15:30:31;1.93;;;1.67;;
16407;SDS011;8313;49.894;8.084;2023-07-13T15:33:10;2.17;;;1.50;;
16407;SDS011;8313;49.894;8.084;2023-07-13T15:35:39;4.30;;;1.40;;
16407;SDS011;8313;49.894;8.084;2023-07-13T15:38:12;1.20;;;1.10;;
16407;SDS011;8313;49.894;8.084;2023-07-13T15:40:46;3.90;;;1.43;;
16407;SDS011;8313;49.894;8.084;2023-07-13T15:43:13;1.30;;;1.20;;
16407;SDS011;8313;49.894;8.084;2023-07-13T15:45:40;1.40;;;1.27;;
16407;SDS011;8313;49.894;8.084;2023-07-13T15:48:12;1.47;;;1.37;;
16407;SDS011;8313;49.894;8.084;2023-07-13T15:50:46;3.13;;;1.40;;
16407;SDS011;8313;49.894;8.084;2023-07-13T15:53:24;1.53;;;1.37;;
16407;SDS011;8313;49.894;8.084;2023-07-13T15:55:53;2.40;;;1.07;;
16407;SDS011;8313;49.894;8.084;2023-07-13T15:58:20;2.00;;;1.23;;